Time;durP1;ratioP1;P1;durP2;ratioP2;P2;SDS_P1;SDS_P2;PMS_P1;PMS_P2;Temp;Humidity;BMP_temperature;BMP_pressure;BME280_temperature;BME280_humidity;BME280_pressure;Samples;Min_cycle;Max_cycle;Signal;HPM_P1;HPM_P2
2023/02/28 00:01:35;;;;;;;5.93;1.50;;;24.60;70.60;;;;;;5071829;28;20665;-72
2023/02/28 00:04:02;;;;;;;5.87;1.70;;;24.50;71.40;;;;;;5070612;28;20672;-74
2023/02/28 00:06:30;;;;;;;9.87;1.93;;;24.50;71.60;;;;;;5068462;28;20226;-74
2023/02/28 00:08:57;;;;;;;9.40;1.93;;;24.40;71.40;;;;;;5069751;28;20206;-74
2023/02/28 00:11:24;;;;;;;5.97;1.70;;;24.30;71.60;;;;;;5066016;28;20190;-74
2023/02/28 00:13:52;;;;;;;6.73;1.37;;;24.30;71.80;;;;;;5071458;28;20210;-74
2023/02/28 00:16:21;;;;;;;5.80;1.57;;;24.30;72.10;;;;;;5072015;28;20630;-74
2023/02/28 00:18:49;;;;;;;6.93;1.70;;;24.30;72.10;;;;;;5070902;28;20175;-73
2023/02/28 00:21:17;;;;;;;7.70;1.93;;;24.30;72.20;;;;;;5071384;28;20194;-72
2023/02/28 00:23:45;;;;;;;6.73;1.97;;;24.30;72.30;;;;;;5071188;28;20739;-72
2023/02/28 00:26:12;;;;;;;9.30;2.40;;;24.30;72.30;;;;;;5069648;28;20579;-73
2023/02/28 00:28:40;;;;;;;7.93;1.77;;;24.20;72.70;;;;;;5071288;28;20186;-75
2023/02/28 00:31:07;;;;;;;5.37;1.57;;;24.20;73.20;;;;;;5070359;28;20171;-73
2023/02/28 00:33:34;;;;;;;8.60;1.83;;;24.20;73.10;;;;;;5067751;28;20184;-74
2023/02/28 00:36:07;;;;;;;5.13;1.50;;;24.10;72.90;;;;;;5072188;28;20219;-72
2023/02/28 00:38:34;;;;;;;5.90;1.53;;;24.20;73.50;;;;;;5075417;28;20186;-72
2023/02/28 00:41:05;;;;;;;9.60;1.57;;;24.20;74.10;;;;;;5075197;28;20676;-73
2023/02/28 00:43:36;;;;;;;8.27;2.17;;;24.30;74.20;;;;;;5075306;28;20175;-73
2023/02/28 00:46:04;;;;;;;12.90;1.90;;;24.20;73.40;;;;;;5074697;28;20202;-73
2023/02/28 00:48:32;;;;;;;9.50;1.70;;;24.30;73.80;;;;;;5073857;28;20179;-74
2023/02/28 00:51:00;;;;;;;7.73;1.87;;;24.40;73.50;;;;;;5072761;28;20182;-73
2023/02/28 00:53:27;;;;;;;9.30;1.90;;;24.60;73.20;;;;;;5069740;28;20179;-69
2023/02/28 00:55:55;;;;;;;5.83;1.60;;;24.70;72.50;;;;;;5073474;28;20210;-72
2023/02/28 00:58:23;;;;;;;7.80;2.20;;;24.90;71.90;;;;;;5072220;28;20195;-68
2023/02/28 01:00:51;;;;;;;10.33;1.60;;;25.10;70.50;;;;;;5070024;28;20538;-70
2023/02/28 01:03:20;;;;;;;6.97;1.50;;;25.20;69.80;;;;;;5073836;28;20187;-68
2023/02/28 01:05:48;;;;;;;7.60;1.90;;;25.50;69.00;;;;;;5070165;28;20231;-68
2023/02/28 01:08:15;;;;;;;9.17;2.23;;;25.80;68.40;;;;;;5070090;28;20225;-68
2023/02/28 01:10:43;;;;;;;6.77;1.90;;;26.00;67.30;;;;;;5067692;28;20183;-70
2023/02/28 01:13:11;;;;;;;7.57;1.90;;;26.10;66.40;;;;;;5070243;28;20583;-68
2023/02/28 01:15:45;;;;;;;9.47;1.77;;;25.90;67.10;;;;;;5074542;28;20186;-68
2023/02/28 01:18:13;;;;;;;5.47;1.67;;;25.80;67.40;;;;;;5067197;28;20194;-68
2023/02/28 01:20:40;;;;;;;7.33;1.67;;;25.70;67.50;;;;;;5074693;28;20183;-67
2023/02/28 01:23:08;;;;;;;15.00;1.80;;;25.60;67.60;;;;;;5068748;28;20172;-68
2023/02/28 01:25:38;;;;;;;8.40;1.80;;;25.80;67.60;;;;;;5074409;28;20190;-68
2023/02/28 01:28:06;;;;;;;6.67;1.60;;;25.90;66.70;;;;;;5073592;28;20221;-67
2023/02/28 01:30:33;;;;;;;7.03;1.73;;;26.10;66.80;;;;;;5068884;28;20634;-67
2023/02/28 01:33:01;;;;;;;7.70;1.63;;;26.60;65.60;;;;;;5072962;28;20214;-67
2023/02/28 01:35:28;;;;;;;9.67;1.60;;;26.70;63.90;;;;;;5071250;28;20187;-73
2023/02/28 01:37:56;;;;;;;6.87;1.93;;;26.90;64.30;;;;;;5073764;28;20664;-72
2023/02/28 01:40:23;;;;;;;8.33;1.60;;;26.90;64.00;;;;;;5069558;28;20183;-73
2023/02/28 01:42:51;;;;;;;9.37;1.80;;;26.70;64.30;;;;;;5072483;28;20179;-73
2023/02/28 01:45:30;;;;;;;8.40;2.00;;;27.00;63.40;;;;;;5067024;28;20187;-70
2023/02/28 01:48:04;;;;;;;7.17;1.73;;;27.30;62.50;;;;;;5069986;28;20654;-68
2023/02/28 01:50:38;;;;;;;9.87;1.77;;;27.50;62.00;;;;;;5072572;28;20191;-71
2023/02/28 01:53:10;;;;;;;5.00;1.50;;;27.40;61.40;;;;;;5072290;28;20194;-70
2023/02/28 01:55:39;;;;;;;5.93;1.50;;;27.50;62.20;;;;;;5072872;28;20259;-71
2023/02/28 01:58:09;;;;;;;5.87;1.43;;;27.60;61.60;;;;;;5072214;28;20226;-72
2023/02/28 02:00:38;;;;;;;12.00;2.03;;;27.70;60.60;;;;;;5072060;28;20282;-71
2023/02/28 02:03:15;;;;;;;4.17;1.67;;;27.50;61.10;;;;;;5070318;28;20195;-72
2023/02/28 02:05:47;;;;;;;6.80;1.60;;;27.70;61.60;;;;;;5072015;28;20238;-73
2023/02/28 02:08:23;;;;;;;7.03;1.67;;;27.40;61.70;;;;;;5072392;28;20578;-71
2023/02/28 02:10:58;;;;;;;7.83;1.93;;;27.40;61.80;;;;;;5066315;28;20237;-70
2023/02/28 02:13:55;;;;;;;4.87;1.73;;;27.20;62.10;;;;;;5067587;28;20595;-71
2023/02/28 02:16:46;;;;;;;3.57;1.43;;;26.90;62.60;;;;;;5071207;28;20221;-71
2023/02/28 02:19:30;;;;;;;7.10;1.83;;;26.80;63.30;;;;;;5070287;28;20179;-73
2023/02/28 02:22:24;;;;;;;6.50;2.10;;;26.60;63.80;;;;;;5062870;28;20191;-70
2023/02/28 02:25:13;;;;;;;6.90;1.50;;;26.60;64.50;;;;;;5068382;28;20183;-72
2023/02/28 02:28:09;;;;;;;5.90;1.60;;;26.50;64.70;;;;;;5067205;28;20294;-72
2023/02/28 02:31:11;;;;;;;5.97;1.70;;;26.50;65.20;;;;;;5071659;28;20253;-73
2023/02/28 02:34:05;;;;;;;5.53;1.40;;;26.50;64.70;;;;;;5071725;28;20611;-70
2023/02/28 02:36:59;;;;;;;6.90;1.67;;;26.50;64.90;;;;;;5071173;28;20225;-73
2023/02/28 02:39:33;;;;;;;4.70;1.10;;;26.40;64.90;;;;;;5069902;28;20183;-71
2023/02/28 02:42:06;;;;;;;10.67;1.63;;;26.50;65.50;;;;;;5072080;28;20180;-71
2023/02/28 02:45:10;;;;;;;7.07;1.60;;;26.40;65.40;;;;;;5072318;28;20262;-73
2023/02/28 02:47:39;;;;;;;4.33;1.40;;;26.50;65.00;;;;;;5060323;28;20211;-71
2023/02/28 02:50:12;;;;;;;5.47;1.43;;;26.40;65.80;;;;;;5071311;28;20179;-71
2023/02/28 02:52:48;;;;;;;7.73;1.67;;;26.50;65.40;;;;;;5072754;28;20182;-72
2023/02/28 02:55:18;;;;;;;7.67;1.60;;;26.60;65.30;;;;;;5071288;28;20211;-71
2023/02/28 02:57:57;;;;;;;10.47;2.00;;;26.70;65.10;;;;;;5064516;28;20228;-72
2023/02/28 03:00:31;;;;;;;8.83;1.70;;;26.80;65.40;;;;;;5073145;28;20183;-72
2023/02/28 03:02:59;;;;;;;7.10;1.87;;;27.20;64.10;;;;;;5070144;28;20186;-72
2023/02/28 03:05:48;;;;;;;7.07;1.80;;;27.90;62.80;;;;;;5069464;28;20222;-73
2023/02/28 03:08:15;;;;;;;7.27;1.60;;;28.50;60.50;;;;;;5070652;28;20195;-71
2023/02/28 03:10:49;;;;;;;7.63;1.63;;;28.90;59.10;;;;;;5072109;28;20179;-72
2023/02/28 03:13:53;;;;;;;10.13;1.70;;;28.80;59.10;;;;;;5070550;28;20186;-71
2023/02/28 03:17:10;;;;;;;6.13;1.80;;;27.80;60.90;;;;;;5067711;28;20575;-72
2023/02/28 03:20:08;;;;;;;5.53;1.57;;;28.20;61.90;;;;;;5032492;28;20658;-73
2023/02/28 03:23:00;;;;;;;8.10;1.50;;;28.50;60.40;;;;;;5067665;28;20187;-73
2023/02/28 03:25:40;;;;;;;12.03;1.80;;;28.40;59.50;;;;;;5069364;28;20258;-72
2023/02/28 03:28:28;;;;;;;6.33;1.50;;;28.80;59.00;;;;;;5066183;28;20565;-71
2023/02/28 03:31:17;;;;;;;6.00;1.40;;;28.80;59.30;;;;;;5067770;28;20625;-74
2023/02/28 03:34:06;;;;;;;5.97;1.67;;;28.90;59.30;;;;;;5071004;28;20662;-72
2023/02/28 03:36:45;;;;;;;8.27;1.50;;;29.10;59.10;;;;;;5066742;28;20189;-71
2023/02/28 03:39:26;;;;;;;6.47;1.57;;;29.10;58.80;;;;;;5067220;28;20174;-71
2023/02/28 03:42:10;;;;;;;6.27;1.57;;;29.30;57.80;;;;;;5067736;28;20603;-74
2023/02/28 03:44:49;;;;;;;5.53;1.30;;;29.30;58.60;;;;;;5068287;28;20254;-72
2023/02/28 03:47:34;;;;;;;6.67;1.77;;;29.70;56.60;;;;;;5070129;28;20354;-71
2023/02/28 03:50:04;;;;;;;4.00;1.40;;;29.60;57.10;;;;;;5067510;28;20281;-68
2023/02/28 03:52:37;;;;;;;6.68;1.50;;;29.70;56.00;;;;;;5067597;28;20183;-68
2023/02/28 03:55:11;;;;;;;7.82;1.65;;;29.50;57.40;;;;;;5069391;28;20206;-68
2023/02/28 03:58:05;;;;;;;7.40;1.80;;;29.60;57.90;;;;;;5070128;28;20193;-72
2023/02/28 04:00:45;;;;;;;6.03;1.50;;;29.60;57.50;;;;;;5070639;28;20335;-70
2023/02/28 04:03:13;;;;;;;7.80;1.63;;;29.70;57.30;;;;;;5067931;28;20186;-74
2023/02/28 04:05:53;;;;;;;7.18;1.70;;;30.00;56.40;;;;;;5065137;28;20690;-72
2023/02/28 04:08:22;;;;;;;6.85;1.50;;;30.40;55.00;;;;;;5061763;28;20704;-72
2023/02/28 04:11:04;;;;;;;6.22;1.35;;;30.30;53.80;;;;;;5066764;28;20511;-72
2023/02/28 04:13:31;;;;;;;4.45;1.50;;;30.30;52.20;;;;;;5070020;28;20183;-73
2023/02/28 04:15:59;;;;;;;4.20;1.30;;;29.80;51.80;;;;;;5066278;28;20179;-73
2023/02/28 04:18:26;;;;;;;9.30;1.42;;;30.30;52.40;;;;;;5066306;28;20546;-74
2023/02/28 04:20:53;;;;;;;5.20;1.45;;;30.70;52.50;;;;;;5070878;28;20179;-74
2023/02/28 04:23:21;;;;;;;8.07;1.38;;;30.30;53.70;;;;;;5067807;28;20182;-71
2023/02/28 04:25:49;;;;;;;7.28;1.30;;;30.50;52.60;;;;;;5067818;28;20182;-73
2023/02/28 04:28:16;;;;;;;5.25;1.17;;;30.60;52.60;;;;;;5067622;28;20250;-71
2023/02/28 04:30:44;;;;;;;3.97;1.20;;;30.70;52.50;;;;;;5070705;28;20175;-74
2023/02/28 04:33:11;;;;;;;4.20;1.50;;;31.00;50.20;;;;;;5068588;28;20179;-73
2023/02/28 04:35:38;;;;;;;2.75;1.05;;;30.80;51.40;;;;;;5065556;28;20172;-73
2023/02/28 04:38:06;;;;;;;5.55;1.23;;;30.70;51.90;;;;;;5069812;28;20191;-72
2023/02/28 04:40:33;;;;;;;3.97;1.30;;;30.50;51.70;;;;;;5066753;28;20270;-71
2023/02/28 04:43:00;;;;;;;3.67;1.20;;;30.40;51.00;;;;;;5070238;28;20865;-71
2023/02/28 04:45:30;;;;;;;5.65;1.58;;;30.30;52.10;;;;;;5066213;28;20172;-72
2023/02/28 04:47:57;;;;;;;4.72;1.15;;;30.30;51.20;;;;;;5069834;28;20289;-72
2023/02/28 04:50:24;;;;;;;3.85;1.10;;;30.20;51.10;;;;;;5069042;28;20269;-72
2023/02/28 04:52:52;;;;;;;4.57;0.98;;;30.30;51.80;;;;;;5066790;28;20183;-72
2023/02/28 04:55:19;;;;;;;4.10;1.30;;;30.10;51.30;;;;;;5066627;28;20783;-71
2023/02/28 04:57:46;;;;;;;3.38;1.02;;;30.10;51.30;;;;;;5068222;28;20337;-73
2023/02/28 05:00:16;;;;;;;5.57;1.27;;;29.40;50.40;;;;;;5069468;28;20180;-74
2023/02/28 05:02:44;;;;;;;9.43;1.48;;;30.10;50.70;;;;;;5065503;28;20245;-73
2023/02/28 05:05:11;;;;;;;7.30;1.30;;;30.30;50.30;;;;;;5063484;28;20241;-72
2023/02/28 05:07:39;;;;;;;5.65;1.13;;;29.90;51.50;;;;;;5068401;28;20215;-68
2023/02/28 05:10:06;;;;;;;4.85;1.45;;;30.10;51.90;;;;;;5067779;28;20887;-74
2023/02/28 05:12:34;;;;;;;3.65;1.20;;;30.30;48.90;;;;;;5067238;28;20182;-70
2023/02/28 05:15:02;;;;;;;5.05;1.65;;;30.50;49.20;;;;;;5067576;28;20191;-71
2023/02/28 05:17:29;;;;;;;5.55;1.70;;;30.30;49.90;;;;;;5067681;28;20566;-72
2023/02/28 05:19:57;;;;;;;6.25;1.73;;;30.40;49.90;;;;;;5067788;28;20178;-71
2023/02/28 05:22:24;;;;;;;6.18;1.45;;;29.70;51.80;;;;;;5069810;28;20186;-72
2023/02/28 05:24:51;;;;;;;3.17;1.30;;;29.00;53.50;;;;;;5071776;28;20190;-72
2023/02/28 05:27:19;;;;;;;5.23;1.37;;;28.80;55.00;;;;;;5073382;28;20555;-74
2023/02/28 05:29:46;;;;;;;5.30;1.70;;;28.60;55.50;;;;;;5073079;28;20189;-73
2023/02/28 05:32:14;;;;;;;6.53;1.40;;;28.30;57.60;;;;;;5071126;28;20207;-73
2023/02/28 05:34:42;;;;;;;4.63;1.23;;;28.00;58.90;;;;;;5067442;28;20918;-73
2023/02/28 05:37:16;;;;;;;6.83;1.77;;;27.90;57.90;;;;;;5067827;28;20179;-68
2023/02/28 05:39:43;;;;;;;4.77;1.50;;;27.90;57.90;;;;;;5073244;28;20194;-71
2023/02/28 05:42:11;;;;;;;5.60;1.50;;;27.90;59.00;;;;;;5069420;28;20236;-72
2023/02/28 05:44:38;;;;;;;6.00;1.50;;;27.80;59.80;;;;;;5070097;28;20193;-74
2023/02/28 05:47:05;;;;;;;5.37;1.30;;;28.00;59.60;;;;;;5071393;28;20269;-73
2023/02/28 05:49:32;;;;;;;5.10;1.47;;;28.60;58.20;;;;;;5072857;28;20195;-68
2023/02/28 05:52:00;;;;;;;4.23;1.33;;;29.00;56.80;;;;;;5071477;28;20179;-72
2023/02/28 05:54:27;;;;;;;7.13;1.97;;;29.80;54.80;;;;;;5073672;28;20657;-73
2023/02/28 05:56:55;;;;;;;4.57;1.40;;;29.50;56.00;;;;;;5073577;28;20589;-71
2023/02/28 05:59:22;;;;;;;5.83;1.70;;;28.90;57.50;;;;;;5072379;28;20264;-72
2023/02/28 06:01:50;;;;;;;6.20;1.40;;;28.80;57.80;;;;;;5069769;28;20290;-70
2023/02/28 06:04:19;;;;;;;5.97;1.30;;;28.20;60.30;;;;;;5073509;28;20191;-71
2023/02/28 06:06:48;;;;;;;6.83;1.60;;;27.90;61.20;;;;;;5073586;28;20227;-71
2023/02/28 06:09:16;;;;;;;6.77;1.60;;;27.90;61.70;;;;;;5068281;28;20239;-71
2023/02/28 06:11:43;;;;;;;6.03;1.60;;;28.90;59.20;;;;;;5074173;28;20532;-71
2023/02/28 06:14:19;;;;;;;3.77;1.37;;;28.60;60.00;;;;;;5069095;28;20179;-71
2023/02/28 06:16:47;;;;;;;7.63;1.77;;;28.10;61.40;;;;;;5070676;28;20229;-67
2023/02/28 06:19:15;;;;;;;6.80;1.67;;;27.80;62.30;;;;;;5071585;28;20244;-69
2023/02/28 06:21:42;;;;;;;7.20;1.57;;;28.00;62.20;;;;;;5075842;28;20560;-73
2023/02/28 06:24:10;;;;;;;5.37;1.43;;;28.30;61.50;;;;;;5066249;28;20209;-72
2023/02/28 06:26:37;;;;;;;6.77;1.50;;;28.60;60.10;;;;;;5074984;28;20203;-72
2023/02/28 06:29:05;;;;;;;4.50;1.58;;;29.50;56.70;;;;;;5069984;28;20195;-73
2023/02/28 06:31:32;;;;;;;4.73;1.80;;;29.50;56.30;;;;;;5068201;28;20179;-71
2023/02/28 06:33:59;;;;;;;5.75;1.55;;;29.50;56.50;;;;;;5068325;28;20191;-71
2023/02/28 06:36:27;;;;;;;7.33;1.57;;;28.80;58.10;;;;;;5072646;28;20175;-73
2023/02/28 06:38:55;;;;;;;8.30;1.57;;;28.10;60.00;;;;;;5074008;28;20199;-71
2023/02/28 06:41:25;;;;;;;5.43;1.50;;;27.70;60.20;;;;;;5069906;28;20183;-74
2023/02/28 06:43:53;;;;;;;5.77;1.60;;;27.70;60.10;;;;;;5069615;28;20187;-72
2023/02/28 06:46:21;;;;;;;3.83;1.43;;;27.60;61.30;;;;;;5071574;28;20183;-74
2023/02/28 06:48:48;;;;;;;8.63;1.50;;;27.60;60.60;;;;;;5067724;28;20500;-74
2023/02/28 06:51:22;;;;;;;5.37;1.50;;;27.40;61.00;;;;;;5069303;28;20229;-72
2023/02/28 06:53:49;;;;;;;6.70;1.50;;;27.10;62.60;;;;;;5070404;28;20183;-72
2023/02/28 06:56:18;;;;;;;9.27;1.60;;;27.00;63.60;;;;;;5069599;28;20187;-72
2023/02/28 06:58:50;;;;;;;7.13;1.67;;;26.70;64.00;;;;;;5066173;28;20203;-72
2023/02/28 07:01:18;;;;;;;4.20;1.67;;;26.40;65.40;;;;;;5070465;28;20213;-72
2023/02/28 07:03:51;;;;;;;7.90;1.70;;;26.60;65.50;;;;;;5067451;28;20218;-71
2023/02/28 07:06:23;;;;;;;4.80;1.50;;;26.70;65.30;;;;;;5069892;28;20587;-72
2023/02/28 07:08:54;;;;;;;4.67;1.70;;;26.80;64.70;;;;;;5069444;28;20190;-69
2023/02/28 07:11:25;;;;;;;4.63;2.00;;;26.80;64.80;;;;;;5070694;28;20177;-72
2023/02/28 07:13:56;;;;;;;8.53;2.20;;;26.90;64.90;;;;;;5067246;28;20257;-69
2023/02/28 07:16:25;;;;;;;7.30;1.70;;;26.80;65.60;;;;;;5073529;28;20186;-72
2023/02/28 07:18:56;;;;;;;8.97;1.60;;;26.60;65.50;;;;;;5062868;28;20180;-72
2023/02/28 07:21:23;;;;;;;7.60;1.40;;;26.40;66.10;;;;;;5071895;28;20183;-70
2023/02/28 07:23:51;;;;;;;4.83;1.50;;;26.30;66.80;;;;;;5072053;28;20183;-71
2023/02/28 07:26:20;;;;;;;6.57;1.70;;;26.30;67.30;;;;;;5069958;28;20179;-71
2023/02/28 07:28:48;;;;;;;7.23;1.70;;;26.30;67.60;;;;;;5071536;28;20270;-73
2023/02/28 07:31:17;;;;;;;10.70;1.70;;;26.00;68.70;;;;;;5069023;28;20182;-74
2023/02/28 07:33:45;;;;;;;3.30;1.60;;;25.80;70.20;;;;;;5070292;28;20574;-73
2023/02/28 07:36:16;;;;;;;11.00;1.90;;;25.60;70.40;;;;;;5069440;28;20614;-70
2023/02/28 07:38:47;;;;;;;9.20;2.20;;;25.50;71.30;;;;;;5070893;28;20179;-75
2023/02/28 07:41:16;;;;;;;11.97;2.10;;;25.20;72.30;;;;;;5064187;28;20218;-73
2023/02/28 07:43:44;;;;;;;7.93;1.70;;;25.20;72.50;;;;;;5067151;28;20545;-75
2023/02/28 07:46:17;;;;;;;11.00;2.33;;;25.00;73.20;;;;;;5063169;28;20191;-69
2023/02/28 07:48:45;;;;;;;7.77;2.10;;;25.00;73.80;;;;;;5071461;28;20519;-75
2023/02/28 07:51:12;;;;;;;5.57;1.67;;;25.00;73.40;;;;;;5068554;28;20191;-73
2023/02/28 07:53:40;;;;;;;6.47;2.20;;;25.00;73.50;;;;;;5071655;28;20197;-70
2023/02/28 07:56:08;;;;;;;6.17;1.80;;;24.90;74.10;;;;;;5070639;28;20646;-72
2023/02/28 07:58:37;;;;;;;8.70;2.27;;;24.90;74.30;;;;;;5067672;28;20176;-68
2023/02/28 08:01:10;;;;;;;6.90;2.30;;;24.80;74.80;;;;;;5071091;28;20188;-73
2023/02/28 08:03:37;;;;;;;9.83;2.47;;;24.80;74.90;;;;;;5067425;28;20180;-73
2023/02/28 08:06:06;;;;;;;8.73;2.37;;;24.80;75.00;;;;;;5072326;28;20310;-74
2023/02/28 08:08:34;;;;;;;6.87;2.03;;;24.70;75.50;;;;;;5067871;28;21278;-74
2023/02/28 08:11:03;;;;;;;8.70;2.20;;;24.70;75.80;;;;;;5071389;28;20613;-73
2023/02/28 08:13:31;;;;;;;8.70;2.13;;;24.60;75.70;;;;;;5067574;28;20626;-75
2023/02/28 08:15:58;;;;;;;10.63;2.20;;;24.50;76.10;;;;;;5071021;28;20237;-72
2023/02/28 08:18:26;;;;;;;7.50;2.23;;;24.50;76.50;;;;;;5070154;28;20202;-73
2023/02/28 08:20:53;;;;;;;12.90;2.50;;;24.40;76.70;;;;;;5069694;28;20381;-67
2023/02/28 08:23:20;;;;;;;10.23;2.53;;;24.30;77.00;;;;;;5068270;28;20664;-69
2023/02/28 08:25:55;;;;;;;5.43;1.97;;;24.30;77.20;;;;;;5065035;28;20184;-68
2023/02/28 08:28:23;;;;;;;4.93;1.90;;;24.20;77.40;;;;;;5071137;28;20218;-68
2023/02/28 08:30:50;;;;;;;9.73;2.37;;;24.10;77.70;;;;;;5063059;28;20233;-72
2023/02/28 08:33:18;;;;;;;8.23;2.07;;;24.10;78.20;;;;;;5069261;28;20578;-68
2023/02/28 08:35:45;;;;;;;7.00;1.97;;;24.10;78.00;;;;;;5070405;28;20171;-69
2023/02/28 08:38:12;;;;;;;8.63;2.13;;;24.00;78.30;;;;;;5070735;28;20178;-69
2023/02/28 08:40:40;;;;;;;8.33;2.90;;;24.00;78.50;;;;;;5066426;28;20266;-70
2023/02/28 08:43:07;;;;;;;9.40;2.30;;;24.00;78.60;;;;;;5069668;28;20183;-71
2023/02/28 08:45:35;;;;;;;7.37;2.20;;;23.90;78.70;;;;;;5071047;28;20187;-71
2023/02/28 08:48:02;;;;;;;8.07;2.57;;;23.90;78.80;;;;;;5070480;28;20298;-69
2023/02/28 08:50:29;;;;;;;7.50;2.00;;;23.80;78.70;;;;;;5072786;28;20183;-71
2023/02/28 08:52:57;;;;;;;8.37;2.13;;;23.80;78.60;;;;;;5069117;28;20187;-72
2023/02/28 08:55:24;;;;;;;9.60;2.27;;;23.80;78.60;;;;;;5064603;28;20632;-75
2023/02/28 08:57:52;;;;;;;9.83;2.43;;;23.80;78.80;;;;;;5070252;28;20187;-71
2023/02/28 09:00:20;;;;;;;12.23;2.40;;;23.80;78.90;;;;;;5074877;28;20250;-68
2023/02/28 09:02:48;;;;;;;7.50;2.10;;;23.80;78.60;;;;;;5072956;28;20191;-75
2023/02/28 09:05:15;;;;;;;9.90;2.70;;;23.80;78.80;;;;;;5071717;28;20219;-71
2023/02/28 09:07:42;;;;;;;10.47;2.60;;;23.80;79.00;;;;;;5075173;28;20218;-71
2023/02/28 09:10:11;;;;;;;7.83;1.97;;;23.80;79.10;;;;;;5070383;28;20183;-72
2023/02/28 09:12:38;;;;;;;12.17;2.77;;;23.80;79.40;;;;;;5069795;28;20183;-75
2023/02/28 09:15:06;;;;;;;7.60;2.90;;;23.80;79.50;;;;;;5073846;28;20190;-73
2023/02/28 09:17:33;;;;;;;7.27;2.20;;;23.70;79.80;;;;;;5072063;28;20194;-73
2023/02/28 09:20:01;;;;;;;13.93;3.00;;;23.80;79.90;;;;;;5072558;28;20262;-72
2023/02/28 09:22:28;;;;;;;10.07;2.57;;;23.80;79.90;;;;;;5074536;28;20653;-72
2023/02/28 09:24:55;;;;;;;7.00;2.80;;;23.80;79.90;;;;;;5074287;28;20186;-69
2023/02/28 09:27:23;;;;;;;14.27;2.70;;;23.80;80.00;;;;;;5065240;28;20744;-71
2023/02/28 09:29:50;;;;;;;8.50;2.50;;;23.70;80.10;;;;;;5068965;28;20696;-71
2023/02/28 09:32:17;;;;;;;11.30;2.90;;;23.80;80.10;;;;;;5076891;28;20196;-69
2023/02/28 09:34:45;;;;;;;10.30;2.53;;;23.70;80.20;;;;;;5074427;28;20188;-73
2023/02/28 09:37:12;;;;;;;9.97;2.67;;;23.70;80.30;;;;;;5074026;28;20184;-73
2023/02/28 09:39:39;;;;;;;12.10;2.80;;;23.80;80.10;;;;;;5075230;28;20669;-74
2023/02/28 09:42:18;;;;;;;9.13;2.30;;;23.70;79.90;;;;;;5072761;28;20186;-67
2023/02/28 09:44:49;;;;;;;8.97;2.40;;;23.80;79.80;;;;;;5067065;28;20183;-71
2023/02/28 09:47:37;;;;;;;7.60;2.40;;;23.80;79.80;;;;;;5070111;28;20194;-68
2023/02/28 09:50:18;;;;;;;7.00;2.57;;;23.80;80.00;;;;;;5072243;28;20195;-75
2023/02/28 09:52:48;;;;;;;10.03;2.70;;;23.80;80.00;;;;;;5070277;28;20701;-69
2023/02/28 09:55:30;;;;;;;10.77;2.53;;;23.80;80.00;;;;;;5071958;28;20180;-74
2023/02/28 09:57:59;;;;;;;5.00;2.47;;;23.80;80.10;;;;;;5070872;28;20197;-71
2023/02/28 10:00:33;;;;;;;8.83;2.70;;;23.80;80.20;;;;;;5073750;28;20705;-74
2023/02/28 10:03:16;;;;;;;6.10;2.40;;;23.80;80.20;;;;;;5069416;28;20176;-70
2023/02/28 10:05:53;;;;;;;9.93;2.63;;;23.80;80.40;;;;;;5070401;28;20784;-73
2023/02/28 10:08:47;;;;;;;9.63;2.87;;;23.80;80.50;;;;;;5066188;28;20226;-72
2023/02/28 10:11:20;;;;;;;11.83;3.10;;;23.90;80.60;;;;;;5068878;28;20183;-75
2023/02/28 10:13:57;;;;;;;8.40;2.60;;;23.80;80.60;;;;;;5073215;28;20641;-73
2023/02/28 10:16:37;;;;;;;12.03;3.17;;;23.80;80.80;;;;;;5072666;28;20210;-74
2023/02/28 10:19:34;;;;;;;14.63;3.20;;;23.90;80.60;;;;;;5064079;28;20187;-76
2023/02/28 10:22:07;;;;;;;13.00;3.07;;;23.90;80.70;;;;;;5072836;28;20183;-69
2023/02/28 10:24:46;;;;;;;9.77;2.37;;;23.90;80.90;;;;;;5072234;28;20217;-74
2023/02/28 10:27:22;;;;;;;6.70;2.57;;;23.90;81.00;;;;;;5071596;28;20219;-76
2023/02/28 10:29:52;;;;;;;9.80;3.20;;;23.90;81.10;;;;;;5064253;28;20633;-73
2023/02/28 10:32:28;;;;;;;11.13;3.00;;;23.90;81.00;;;;;;5073158;28;20236;-70
2023/02/28 10:35:11;;;;;;;9.10;2.67;;;23.90;81.10;;;;;;5067973;28;20672;-72
2023/02/28 10:37:40;;;;;;;11.83;4.10;;;23.90;81.30;;;;;;5066938;28;20269;-70
2023/02/28 10:40:28;;;;;;;10.73;3.17;;;23.90;81.40;;;;;;5074103;28;20264;-68
2023/02/28 10:43:00;;;;;;;10.07;3.10;;;23.90;81.50;;;;;;5068681;28;20195;-74
2023/02/28 10:45:34;;;;;;;10.83;2.77;;;23.90;81.60;;;;;;5072797;28;20191;-69
2023/02/28 10:48:09;;;;;;;9.37;2.60;;;23.90;81.80;;;;;;5068354;28;20724;-76
2023/02/28 10:50:39;;;;;;;9.27;2.97;;;23.90;81.80;;;;;;5071864;28;20175;-71
2023/02/28 10:53:26;;;;;;;13.77;3.43;;;23.80;82.00;;;;;;5071391;28;20661;-68
2023/02/28 10:56:01;;;;;;;13.93;3.63;;;23.90;82.00;;;;;;5068235;28;20491;-69
2023/02/28 10:58:48;;;;;;;6.83;2.70;;;23.80;82.30;;;;;;5071368;28;20183;-68
2023/02/28 11:01:17;;;;;;;11.00;3.03;;;23.80;82.30;;;;;;5069715;28;20186;-67
2023/02/28 11:03:44;;;;;;;11.67;3.23;;;23.80;82.40;;;;;;5067946;28;20171;-70
2023/02/28 11:11:49;;;;;;;12.37;4.17;;;23.80;82.70;;;;;;4988948;28;20232;-67
2023/02/28 11:14:30;;;;;;;13.33;3.47;;;23.80;82.80;;;;;;5000621;28;20186;-67
2023/02/28 11:17:13;;;;;;;12.43;3.37;;;23.80;82.90;;;;;;4987199;28;20185;-66
2023/02/28 11:19:46;;;;;;;12.93;3.40;;;23.80;83.30;;;;;;4988860;28;20182;-67
2023/02/28 11:22:23;;;;;;;10.03;3.37;;;23.80;83.00;;;;;;4992085;28;20530;-66
2023/02/28 11:24:55;;;;;;;6.27;3.00;;;23.80;83.30;;;;;;4971777;28;20328;-68
2023/02/28 11:27:52;;;;;;;15.93;3.47;;;23.80;83.30;;;;;;4993109;28;20312;-66
2023/02/28 11:30:40;;;;;;;10.97;3.13;;;23.80;83.50;;;;;;4984974;28;20190;-67
2023/02/28 11:33:29;;;;;;;10.27;3.07;;;23.80;83.50;;;;;;5005159;28;20655;-67
2023/02/28 11:36:04;;;;;;;9.53;3.07;;;23.80;83.50;;;;;;5006377;28;20647;-66
2023/02/28 11:38:35;;;;;;;12.10;3.10;;;23.80;83.50;;;;;;5013480;28;20236;-66
2023/02/28 11:41:06;;;;;;;20.77;3.87;;;23.80;83.50;;;;;;5013654;28;20183;-67
2023/02/28 11:43:44;;;;;;;11.63;3.20;;;23.80;83.60;;;;;;5013324;28;20185;-67
2023/02/28 11:46:53;;;;;;;12.77;3.43;;;23.80;83.60;;;;;;5006414;28;20242;-67
2023/02/28 11:49:49;;;;;;;13.47;3.70;;;23.80;83.80;;;;;;4993448;28;20237;-65
2023/02/28 11:52:34;;;;;;;11.93;3.77;;;23.80;84.00;;;;;;4989147;28;20268;-67
2023/02/28 11:55:32;;;;;;;9.23;3.07;;;23.70;84.00;;;;;;5007820;28;20173;-67
2023/02/28 11:58:26;;;;;;;11.03;3.40;;;23.70;84.20;;;;;;4993708;28;20643;-66
2023/02/28 12:01:07;;;;;;;14.70;4.00;;;23.80;84.30;;;;;;5009921;28;20188;-66
2023/02/28 12:03:55;;;;;;;13.40;2.87;;;23.70;84.20;;;;;;5007992;28;20230;-67
2023/02/28 12:06:26;;;;;;;10.53;3.77;;;23.60;84.40;;;;;;5009892;28;20252;-66
2023/02/28 12:09:43;;;;;;;15.17;3.87;;;23.60;84.70;;;;;;5009159;28;21019;-66
2023/02/28 12:12:59;;;;;;;11.27;3.30;;;23.60;85.00;;;;;;4974263;28;20225;-67
2023/02/28 12:15:38;;;;;;;14.73;3.43;;;23.60;85.00;;;;;;4973675;28;20175;-68
2023/02/28 12:18:27;;;;;;;15.80;3.97;;;23.60;85.20;;;;;;4992965;28;20193;-69
2023/02/28 12:21:23;;;;;;;11.30;3.40;;;23.60;85.10;;;;;;4993253;28;20218;-66
2023/02/28 12:24:21;;;;;;;13.47;3.40;;;23.60;85.30;;;;;;4992928;28;20228;-67
2023/02/28 12:26:50;;;;;;;12.43;3.10;;;23.60;85.20;;;;;;5012502;28;20208;-68
2023/02/28 12:29:31;;;;;;;16.00;4.70;;;23.60;85.20;;;;;;5012404;28;20181;-66
2023/02/28 12:32:10;;;;;;;13.50;3.60;;;23.50;85.30;;;;;;5012696;28;20184;-67
2023/02/28 12:34:52;;;;;;;15.17;3.60;;;23.50;85.40;;;;;;5013030;28;20345;-66
2023/02/28 12:37:32;;;;;;;15.43;4.33;;;23.50;85.60;;;;;;5012460;28;20577;-67
2023/02/28 12:40:12;;;;;;;13.13;4.07;;;23.50;85.60;;;;;;5011964;28;20176;-66
2023/02/28 12:42:53;;;;;;;12.00;3.73;;;23.60;85.60;;;;;;5012712;28;20165;-68
2023/02/28 12:45:44;;;;;;;14.37;3.77;;;23.60;85.60;;;;;;4973720;28;20171;-67
2023/02/28 12:48:20;;;;;;;13.50;4.10;;;23.60;85.60;;;;;;4999089;28;20217;-67
2023/02/28 12:50:49;;;;;;;16.63;3.67;;;23.60;85.60;;;;;;5005353;28;20180;-66
2023/02/28 12:53:19;;;;;;;15.63;3.67;;;23.70;85.60;;;;;;5012585;28;20181;-66
2023/02/28 12:56:16;;;;;;;11.97;3.90;;;23.70;85.50;;;;;;5012669;28;20219;-65
2023/02/28 12:58:59;;;;;;;12.77;3.23;;;23.70;85.50;;;;;;4984710;28;20205;-68
2023/02/28 13:02:02;;;;;;;18.33;4.10;;;23.70;85.50;;;;;;4997295;28;20233;-66
2023/02/28 13:04:57;;;;;;;12.83;3.40;;;23.70;85.40;;;;;;4994758;28;20188;-66
2023/02/28 13:07:31;;;;;;;10.30;4.07;;;23.70;85.40;;;;;;5008187;28;20236;-67
2023/02/28 13:10:00;;;;;;;11.13;4.00;;;23.70;85.50;;;;;;4973335;28;20183;-67
2023/02/28 13:12:29;;;;;;;18.40;3.77;;;23.70;85.60;;;;;;4956067;28;20275;-68
2023/02/28 13:15:16;;;;;;;11.33;3.43;;;23.70;85.60;;;;;;4954752;28;20263;-67
2023/02/28 13:17:50;;;;;;;10.47;3.60;;;23.70;85.70;;;;;;4965419;28;20187;-66
2023/02/28 13:20:24;;;;;;;14.20;3.70;;;23.70;85.70;;;;;;4972834;28;20183;-67
2023/02/28 13:22:53;;;;;;;10.97;3.47;;;23.70;85.80;;;;;;4973346;28;20167;-67